Terminal Aerodrome Forecast
Issued by NWS Billings, MT

Home | Current Version | Previous Version | Text Only | Print | Product List | Glossary Off
Versions: 1 2 3 4 5 6 7 8 9 10 11 12 13 14 15 16 17 18 19 20 21 22 23 24 25 26

000
FTUS45 KBYZ 060342 AAA
TAFMLS
TAF AMD
KMLS 060342Z 0604/0624 14015G22KT P6SM FEW080 BKN200
     FM060500 14011KT P6SM FEW080 BKN150 WS010/16035KT
     FM060800 16010KT P6SM BKN100
     FM061200 34011KT P6SM VCSH BKN070
     FM061500 33016G25KT P6SM -SHRA SCT025 BKN035=

USA.gov is the U.S. government's official web portal to all federal, state and local government web resources and services.